Terminal Aerodrome Forecast
Issued by NWS

Home | Current Version | Previous Version | Text Only | Print | Product List | Glossary On
Versions: 1 2 3 4 5 6 7 8 9 10 11 12 13 14 15 16 17 18 19 20 21 22 23 24 25 26 27 28 29 30 31 32
000
FTUS43 KDDC 171720
TAFGCK
TAF
KGCK 171720Z 1718/1818 19025G35KT P6SM SCT090 SCT250
     FM180000 18020G30KT P6SM VCTS BKN090CB
     FM180300 17013KT P6SM SCT250 WS020/20040KT
     FM180900 17007KT P6SM SKC
     FM181500 02010KT P6SM SKC=

USA.gov is the U.S. government's official web portal to all federal, state and local government web resources and services.